sensor_id;sensor_type;location;lat;lon;timestamp;temperature;humidity
975;DHT22;6115;49.296;10.602;2022-09-29T00:02:18;6.70;76.70
975;DHT22;6115;49.296;10.602;2022-09-29T00:07:19;6.70;76.70
975;DHT22;6115;49.296;10.602;2022-09-29T00:12:20;6.60;76.60
975;DHT22;6115;49.296;10.602;2022-09-29T00:17:20;6.50;76.50
975;DHT22;6115;49.296;10.602;2022-09-29T00:22:21;6.50;76.50
975;DHT22;6115;49.296;10.602;2022-09-29T00:27:21;6.60;76.60
975;DHT22;6115;49.296;10.602;2022-09-29T00:32:22;6.70;76.70
975;DHT22;6115;49.296;10.602;2022-09-29T00:37:23;6.70;76.70
975;DHT22;6115;49.296;10.602;2022-09-29T00:42:23;6.80;76.80
975;DHT22;6115;49.296;10.602;2022-09-29T00:47:24;6.80;76.90
975;DHT22;6115;49.296;10.602;2022-09-29T00:52:47;6.90;77.40
975;DHT22;6115;49.296;10.602;2022-09-29T00:57:53;6.90;77.60
975;DHT22;6115;49.296;10.602;2022-09-29T01:03:27;7.00;77.80
975;DHT22;6115;49.296;10.602;2022-09-29T01:08:40;7.10;77.70
975;DHT22;6115;49.296;10.602;2022-09-29T01:13:42;7.10;77.90
975;DHT22;6115;49.296;10.602;2022-09-29T01:18:45;7.10;77.90
975;DHT22;6115;49.296;10.602;2022-09-29T01:35:08;6.90;77.30
975;DHT22;6115;49.296;10.602;2022-09-29T01:40:15;6.90;76.90
975;DHT22;6115;49.296;10.602;2022-09-29T01:45:31;6.80;76.90
975;DHT22;6115;49.296;10.602;2022-09-29T01:50:37;6.80;76.80
975;DHT22;6115;49.296;10.602;2022-09-29T01:55:48;6.70;76.90
975;DHT22;6115;49.296;10.602;2022-09-29T02:00:53;6.70;76.70
975;DHT22;6115;49.296;10.602;2022-09-29T02:05:57;6.60;76.60
975;DHT22;6115;49.296;10.602;2022-09-29T02:11:02;6.60;76.70
975;DHT22;6115;49.296;10.602;2022-09-29T02:16:04;6.50;76.50
975;DHT22;6115;49.296;10.602;2022-09-29T02:21:07;6.50;76.50
975;DHT22;6115;49.296;10.602;2022-09-29T02:26:09;6.40;76.40
975;DHT22;6115;49.296;10.602;2022-09-29T02:31:12;6.50;76.90
975;DHT22;6115;49.296;10.602;2022-09-29T02:36:42;6.40;76.90
975;DHT22;6115;49.296;10.602;2022-09-29T02:41:59;6.20;76.80
975;DHT22;6115;49.296;10.602;2022-09-29T03:02:46;6.00;76.10
975;DHT22;6115;49.296;10.602;2022-09-29T03:07:47;5.70;75.80
975;DHT22;6115;49.296;10.602;2022-09-29T03:12:47;5.60;76.50
975;DHT22;6115;49.296;10.602;2022-09-29T03:17:48;5.60;75.70
975;DHT22;6115;49.296;10.602;2022-09-29T03:22:49;5.60;75.70
975;DHT22;6115;49.296;10.602;2022-09-29T03:27:51;5.50;75.60
975;DHT22;6115;49.296;10.602;2022-09-29T03:32:52;5.50;75.70
975;DHT22;6115;49.296;10.602;2022-09-29T03:37:58;5.50;75.70
975;DHT22;6115;49.296;10.602;2022-09-29T03:42:58;5.40;76.20
975;DHT22;6115;49.296;10.602;2022-09-29T03:47:59;5.40;76.70
975;DHT22;6115;49.296;10.602;2022-09-29T03:53:00;5.40;76.80
975;DHT22;6115;49.296;10.602;2022-09-29T03:58:00;5.30;77.10
975;DHT22;6115;49.296;10.602;2022-09-29T04:03:01;5.40;77.40
975;DHT22;6115;49.296;10.602;2022-09-29T04:08:01;5.40;77.90
975;DHT22;6115;49.296;10.602;2022-09-29T04:13:03;5.40;78.40
975;DHT22;6115;49.296;10.602;2022-09-29T04:18:04;5.40;79.10
975;DHT22;6115;49.296;10.602;2022-09-29T04:23:05;5.50;79.30
975;DHT22;6115;49.296;10.602;2022-09-29T04:28:06;5.60;79.50
975;DHT22;6115;49.296;10.602;2022-09-29T04:33:06;5.70;79.60
975;DHT22;6115;49.296;10.602;2022-09-29T04:38:07;5.70;79.70
975;DHT22;6115;49.296;10.602;2022-09-29T04:43:08;5.70;79.60
975;DHT22;6115;49.296;10.602;2022-09-29T04:48:09;5.70;79.60
975;DHT22;6115;49.296;10.602;2022-09-29T04:53:10;5.90;79.90
975;DHT22;6115;49.296;10.602;2022-09-29T04:58:11;6.00;79.90
975;DHT22;6115;49.296;10.602;2022-09-29T05:03:11;6.10;80.00
975;DHT22;6115;49.296;10.602;2022-09-29T05:08:12;6.10;79.60
975;DHT22;6115;49.296;10.602;2022-09-29T05:13:13;6.20;79.50
975;DHT22;6115;49.296;10.602;2022-09-29T05:18:13;6.20;79.40
975;DHT22;6115;49.296;10.602;2022-09-29T05:23:14;6.00;78.90
975;DHT22;6115;49.296;10.602;2022-09-29T05:28:14;6.00;78.50
975;DHT22;6115;49.296;10.602;2022-09-29T05:33:15;6.00;77.90
975;DHT22;6115;49.296;10.602;2022-09-29T05:38:15;6.00;77.70
975;DHT22;6115;49.296;10.602;2022-09-29T05:43:16;5.90;77.50
975;DHT22;6115;49.296;10.602;2022-09-29T05:48:16;5.90;77.60
975;DHT22;6115;49.296;10.602;2022-09-29T05:53:17;6.00;78.10
975;DHT22;6115;49.296;10.602;2022-09-29T05:58:18;6.00;79.10
975;DHT22;6115;49.296;10.602;2022-09-29T06:03:18;5.90;78.30
975;DHT22;6115;49.296;10.602;2022-09-29T06:08:19;6.00;78.50
975;DHT22;6115;49.296;10.602;2022-09-29T06:13:19;6.10;78.50
975;DHT22;6115;49.296;10.602;2022-09-29T06:18:20;6.20;79.00
975;DHT22;6115;49.296;10.602;2022-09-29T06:23:20;6.30;79.20
975;DHT22;6115;49.296;10.602;2022-09-29T06:28:21;6.40;79.30
975;DHT22;6115;49.296;10.602;2022-09-29T06:33:21;6.40;79.50
975;DHT22;6115;49.296;10.602;2022-09-29T06:38:22;6.70;79.80
975;DHT22;6115;49.296;10.602;2022-09-29T06:43:22;6.90;80.00
975;DHT22;6115;49.296;10.602;2022-09-29T06:48:23;7.10;80.20
975;DHT22;6115;49.296;10.602;2022-09-29T06:53:23;7.30;80.50
975;DHT22;6115;49.296;10.602;2022-09-29T06:58:25;7.40;80.40
975;DHT22;6115;49.296;10.602;2022-09-29T07:03:27;7.60;80.40
975;DHT22;6115;49.296;10.602;2022-09-29T07:08:28;7.80;80.00
975;DHT22;6115;49.296;10.602;2022-09-29T07:13:29;8.00;79.60
975;DHT22;6115;49.296;10.602;2022-09-29T07:18:29;8.10;78.90
975;DHT22;6115;49.296;10.602;2022-09-29T07:23:30;8.30;78.50
975;DHT22;6115;49.296;10.602;2022-09-29T07:28:31;8.40;78.30
975;DHT22;6115;49.296;10.602;2022-09-29T07:33:32;8.40;78.70
975;DHT22;6115;49.296;10.602;2022-09-29T07:38:33;8.40;78.60
975;DHT22;6115;49.296;10.602;2022-09-29T07:43:33;8.50;78.40
975;DHT22;6115;49.296;10.602;2022-09-29T07:48:35;8.60;78.50
975;DHT22;6115;49.296;10.602;2022-09-29T07:53:36;8.70;78.60
975;DHT22;6115;49.296;10.602;2022-09-29T07:58:37;9.10;77.90
975;DHT22;6115;49.296;10.602;2022-09-29T08:03:39;9.40;77.00
975;DHT22;6115;49.296;10.602;2022-09-29T08:08:41;9.60;76.50
975;DHT22;6115;49.296;10.602;2022-09-29T08:13:41;9.90;74.90
975;DHT22;6115;49.296;10.602;2022-09-29T08:18:42;10.20;73.30
975;DHT22;6115;49.296;10.602;2022-09-29T08:23:43;10.50;72.50
975;DHT22;6115;49.296;10.602;2022-09-29T08:28:44;10.70;69.90
975;DHT22;6115;49.296;10.602;2022-09-29T08:33:48;10.90;70.00
975;DHT22;6115;49.296;10.602;2022-09-29T08:38:55;11.00;69.50
975;DHT22;6115;49.296;10.602;2022-09-29T08:44:05;11.40;69.40
975;DHT22;6115;49.296;10.602;2022-09-29T08:49:12;11.70;68.80
975;DHT22;6115;49.296;10.602;2022-09-29T08:59:22;12.20;63.40
975;DHT22;6115;49.296;10.602;2022-09-29T09:14:53;12.90;62.10
975;DHT22;6115;49.296;10.602;2022-09-29T09:20:31;13.20;60.10
975;DHT22;6115;49.296;10.602;2022-09-29T09:25:37;13.20;59.30
975;DHT22;6115;49.296;10.602;2022-09-29T09:30:53;13.10;57.60
975;DHT22;6115;49.296;10.602;2022-09-29T09:36:04;13.30;57.70
975;DHT22;6115;49.296;10.602;2022-09-29T09:41:08;13.40;57.10
975;DHT22;6115;49.296;10.602;2022-09-29T09:46:17;13.70;57.40
975;DHT22;6115;49.296;10.602;2022-09-29T09:56:57;13.70;56.60
975;DHT22;6115;49.296;10.602;2022-09-29T10:02:02;13.70;57.80
975;DHT22;6115;49.296;10.602;2022-09-29T10:07:03;13.40;57.20
975;DHT22;6115;49.296;10.602;2022-09-29T10:12:04;13.60;57.20
975;DHT22;6115;49.296;10.602;2022-09-29T10:17:06;13.70;56.30
975;DHT22;6115;49.296;10.602;2022-09-29T10:22:13;13.60;56.10
975;DHT22;6115;49.296;10.602;2022-09-29T10:27:19;13.50;57.20
975;DHT22;6115;49.296;10.602;2022-09-29T10:32:29;13.70;58.10
975;DHT22;6115;49.296;10.602;2022-09-29T10:37:38;13.80;58.00
975;DHT22;6115;49.296;10.602;2022-09-29T10:42:45;14.00;58.30
975;DHT22;6115;49.296;10.602;2022-09-29T10:52:59;14.90;55.00
975;DHT22;6115;49.296;10.602;2022-09-29T10:58:30;14.80;54.60
975;DHT22;6115;49.296;10.602;2022-09-29T11:03:31;14.80;53.80
975;DHT22;6115;49.296;10.602;2022-09-29T11:08:33;14.90;52.90
975;DHT22;6115;49.296;10.602;2022-09-29T11:13:51;14.70;51.40
975;DHT22;6115;49.296;10.602;2022-09-29T11:18:54;14.50;52.00
975;DHT22;6115;49.296;10.602;2022-09-29T11:24:23;14.40;51.60
975;DHT22;6115;49.296;10.602;2022-09-29T11:40:23;14.00;51.60
975;DHT22;6115;49.296;10.602;2022-09-29T11:45:41;13.80;51.20
975;DHT22;6115;49.296;10.602;2022-09-29T11:50:53;13.70;51.10
975;DHT22;6115;49.296;10.602;2022-09-29T12:12:51;13.10;56.80
975;DHT22;6115;49.296;10.602;2022-09-29T12:17:59;13.00;58.10
975;DHT22;6115;49.296;10.602;2022-09-29T12:23:04;13.10;59.70
975;DHT22;6115;49.296;10.602;2022-09-29T12:28:16;13.20;60.00
975;DHT22;6115;49.296;10.602;2022-09-29T12:33:21;13.40;60.20
975;DHT22;6115;49.296;10.602;2022-09-29T12:38:38;13.70;57.30
975;DHT22;6115;49.296;10.602;2022-09-29T12:43:55;13.90;56.10
975;DHT22;6115;49.296;10.602;2022-09-29T12:49:14;14.00;56.30
975;DHT22;6115;49.296;10.602;2022-09-29T12:54:44;14.30;56.00
975;DHT22;6115;49.296;10.602;2022-09-29T13:00:09;14.30;54.20
975;DHT22;6115;49.296;10.602;2022-09-29T13:05:22;14.20;52.00
975;DHT22;6115;49.296;10.602;2022-09-29T13:10:44;14.10;50.30
975;DHT22;6115;49.296;10.602;2022-09-29T13:16:05;14.20;48.40
975;DHT22;6115;49.296;10.602;2022-09-29T13:32:08;13.90;53.80
975;DHT22;6115;49.296;10.602;2022-09-29T13:37:17;13.80;53.20
975;DHT22;6115;49.296;10.602;2022-09-29T13:42:38;13.70;51.40
975;DHT22;6115;49.296;10.602;2022-09-29T13:47:44;13.60;51.30
975;DHT22;6115;49.296;10.602;2022-09-29T13:52:45;13.50;51.80
975;DHT22;6115;49.296;10.602;2022-09-29T13:57:51;13.50;52.40
975;DHT22;6115;49.296;10.602;2022-09-29T14:03:05;13.40;53.00
975;DHT22;6115;49.296;10.602;2022-09-29T14:08:26;13.20;53.20
975;DHT22;6115;49.296;10.602;2022-09-29T14:14:04;12.80;52.90
975;DHT22;6115;49.296;10.602;2022-09-29T14:29:41;12.70;53.80
975;DHT22;6115;49.296;10.602;2022-09-29T14:34:43;12.50;52.90
975;DHT22;6115;49.296;10.602;2022-09-29T14:39:45;12.50;54.10
975;DHT22;6115;49.296;10.602;2022-09-29T14:45:06;12.60;54.20
975;DHT22;6115;49.296;10.602;2022-09-29T14:50:48;12.70;54.60
975;DHT22;6115;49.296;10.602;2022-09-29T15:07:03;12.40;57.30
975;DHT22;6115;49.296;10.602;2022-09-29T15:12:13;12.50;57.60
975;DHT22;6115;49.296;10.602;2022-09-29T15:17:33;12.50;57.60
975;DHT22;6115;49.296;10.602;2022-09-29T15:23:42;12.40;57.70
975;DHT22;6115;49.296;10.602;2022-09-29T15:28:33;12.60;57.90
975;DHT22;6115;49.296;10.602;2022-09-29T15:33:37;12.60;56.90
975;DHT22;6115;49.296;10.602;2022-09-29T15:38:39;12.50;56.70
975;DHT22;6115;49.296;10.602;2022-09-29T15:43:43;12.60;56.20
975;DHT22;6115;49.296;10.602;2022-09-29T15:54:12;12.70;56.70
975;DHT22;6115;49.296;10.602;2022-09-29T15:59:17;12.70;56.60
975;DHT22;6115;49.296;10.602;2022-09-29T16:04:18;12.60;55.90
975;DHT22;6115;49.296;10.602;2022-09-29T16:09:19;12.60;56.30
975;DHT22;6115;49.296;10.602;2022-09-29T16:14:25;12.30;56.90
975;DHT22;6115;49.296;10.602;2022-09-29T16:19:29;12.20;57.60
975;DHT22;6115;49.296;10.602;2022-09-29T16:24:34;12.20;57.20
975;DHT22;6115;49.296;10.602;2022-09-29T16:29:35;12.40;57.10
975;DHT22;6115;49.296;10.602;2022-09-29T16:34:36;12.50;57.30
975;DHT22;6115;49.296;10.602;2022-09-29T16:39:42;12.40;57.50
975;DHT22;6115;49.296;10.602;2022-09-29T16:44:43;12.40;57.70
975;DHT22;6115;49.296;10.602;2022-09-29T16:49:53;12.30;57.90
975;DHT22;6115;49.296;10.602;2022-09-29T16:55:27;12.20;58.10
975;DHT22;6115;49.296;10.602;2022-09-29T17:00:27;12.10;58.30
975;DHT22;6115;49.296;10.602;2022-09-29T17:05:28;11.90;59.20
975;DHT22;6115;49.296;10.602;2022-09-29T17:10:29;11.80;59.60
975;DHT22;6115;49.296;10.602;2022-09-29T17:15:30;11.70;60.50
975;DHT22;6115;49.296;10.602;2022-09-29T17:20:31;11.40;60.60
975;DHT22;6115;49.296;10.602;2022-09-29T17:25:32;11.30;61.00
975;DHT22;6115;49.296;10.602;2022-09-29T17:30:33;11.20;61.70
975;DHT22;6115;49.296;10.602;2022-09-29T17:35:38;10.90;62.50
975;DHT22;6115;49.296;10.602;2022-09-29T17:45:42;10.70;63.50
975;DHT22;6115;49.296;10.602;2022-09-29T17:50:45;10.30;64.40
975;DHT22;6115;49.296;10.602;2022-09-29T17:55:48;10.20;65.60
975;DHT22;6115;49.296;10.602;2022-09-29T18:00:51;10.10;65.90
975;DHT22;6115;49.296;10.602;2022-09-29T18:05:54;10.10;66.50
975;DHT22;6115;49.296;10.602;2022-09-29T18:10:58;10.00;66.40
975;DHT22;6115;49.296;10.602;2022-09-29T18:15:59;9.90;67.70
975;DHT22;6115;49.296;10.602;2022-09-29T18:21:00;9.70;68.50
975;DHT22;6115;49.296;10.602;2022-09-29T18:26:04;9.40;69.60
975;DHT22;6115;49.296;10.602;2022-09-29T18:31:23;9.20;70.10
975;DHT22;6115;49.296;10.602;2022-09-29T18:36:24;9.10;70.80
975;DHT22;6115;49.296;10.602;2022-09-29T18:41:25;9.10;70.80
975;DHT22;6115;49.296;10.602;2022-09-29T18:46:26;9.10;70.70
975;DHT22;6115;49.296;10.602;2022-09-29T18:51:31;9.00;70.70
975;DHT22;6115;49.296;10.602;2022-09-29T18:56:34;8.80;71.40
975;DHT22;6115;49.296;10.602;2022-09-29T19:01:34;8.80;71.60
975;DHT22;6115;49.296;10.602;2022-09-29T19:06:35;8.80;71.80
975;DHT22;6115;49.296;10.602;2022-09-29T19:11:35;8.80;71.60
975;DHT22;6115;49.296;10.602;2022-09-29T19:16:37;8.70;71.60
975;DHT22;6115;49.296;10.602;2022-09-29T19:21:38;8.60;71.50
975;DHT22;6115;49.296;10.602;2022-09-29T19:26:41;8.50;71.60
975;DHT22;6115;49.296;10.602;2022-09-29T19:31:42;8.40;71.90
975;DHT22;6115;49.296;10.602;2022-09-29T19:36:42;8.30;72.30
975;DHT22;6115;49.296;10.602;2022-09-29T19:41:43;8.30;72.40
975;DHT22;6115;49.296;10.602;2022-09-29T19:46:43;8.30;72.60
975;DHT22;6115;49.296;10.602;2022-09-29T19:51:44;8.20;72.80
975;DHT22;6115;49.296;10.602;2022-09-29T19:57:00;8.20;73.00
975;DHT22;6115;49.296;10.602;2022-09-29T20:02:02;8.20;73.20
975;DHT22;6115;49.296;10.602;2022-09-29T20:07:04;8.10;73.30
975;DHT22;6115;49.296;10.602;2022-09-29T20:12:05;7.90;73.10
975;DHT22;6115;49.296;10.602;2022-09-29T20:17:05;7.90;73.10
975;DHT22;6115;49.296;10.602;2022-09-29T20:22:06;7.90;73.10
975;DHT22;6115;49.296;10.602;2022-09-29T20:27:08;7.80;73.00
975;DHT22;6115;49.296;10.602;2022-09-29T20:32:10;7.70;72.90
975;DHT22;6115;49.296;10.602;2022-09-29T20:37:11;7.60;73.30
975;DHT22;6115;49.296;10.602;2022-09-29T20:42:16;7.50;73.70
975;DHT22;6115;49.296;10.602;2022-09-29T20:47:17;7.50;73.70
975;DHT22;6115;49.296;10.602;2022-09-29T20:52:18;7.40;73.70
975;DHT22;6115;49.296;10.602;2022-09-29T20:57:18;7.40;73.70
975;DHT22;6115;49.296;10.602;2022-09-29T21:02:19;7.30;73.50
975;DHT22;6115;49.296;10.602;2022-09-29T21:07:20;7.20;73.60
975;DHT22;6115;49.296;10.602;2022-09-29T21:12:37;7.30;73.70
975;DHT22;6115;49.296;10.602;2022-09-29T21:17:38;7.20;73.50
975;DHT22;6115;49.296;10.602;2022-09-29T21:22:38;7.00;73.70
975;DHT22;6115;49.296;10.602;2022-09-29T21:27:39;7.00;74.00
975;DHT22;6115;49.296;10.602;2022-09-29T21:32:39;7.00;73.90
975;DHT22;6115;49.296;10.602;2022-09-29T21:37:40;6.90;74.00
975;DHT22;6115;49.296;10.602;2022-09-29T21:42:41;6.90;73.90
975;DHT22;6115;49.296;10.602;2022-09-29T21:47:42;6.80;73.60
975;DHT22;6115;49.296;10.602;2022-09-29T21:53:01;6.70;73.30
975;DHT22;6115;49.296;10.602;2022-09-29T21:58:01;6.70;73.30
975;DHT22;6115;49.296;10.602;2022-09-29T22:03:02;6.60;73.30
975;DHT22;6115;49.296;10.602;2022-09-29T22:08:02;6.50;73.30
975;DHT22;6115;49.296;10.602;2022-09-29T22:13:03;6.40;73.70
975;DHT22;6115;49.296;10.602;2022-09-29T22:18:03;6.40;74.00
975;DHT22;6115;49.296;10.602;2022-09-29T22:23:04;6.30;73.80
975;DHT22;6115;49.296;10.602;2022-09-29T22:28:05;6.20;74.00
975;DHT22;6115;49.296;10.602;2022-09-29T22:33:05;6.10;74.10
975;DHT22;6115;49.296;10.602;2022-09-29T22:38:07;6.00;74.30
975;DHT22;6115;49.296;10.602;2022-09-29T22:43:08;6.00;74.40
975;DHT22;6115;49.296;10.602;2022-09-29T22:48:08;5.90;74.40
975;DHT22;6115;49.296;10.602;2022-09-29T22:53:09;5.90;74.40
975;DHT22;6115;49.296;10.602;2022-09-29T22:58:11;5.90;74.50
975;DHT22;6115;49.296;10.602;2022-09-29T23:03:12;5.90;74.50
975;DHT22;6115;49.296;10.602;2022-09-29T23:08:12;5.80;74.30
975;DHT22;6115;49.296;10.602;2022-09-29T23:13:13;5.80;74.30
975;DHT22;6115;49.296;10.602;2022-09-29T23:18:15;5.80;74.40
975;DHT22;6115;49.296;10.602;2022-09-29T23:23:16;5.70;74.60
975;DHT22;6115;49.296;10.602;2022-09-29T23:28:16;5.70;74.80
975;DHT22;6115;49.296;10.602;2022-09-29T23:33:18;5.80;75.20
975;DHT22;6115;49.296;10.602;2022-09-29T23:38:18;5.70;75.10
975;DHT22;6115;49.296;10.602;2022-09-29T23:43:37;5.70;75.10
975;DHT22;6115;49.296;10.602;2022-09-29T23:48:41;5.70;74.90
975;DHT22;6115;49.296;10.602;2022-09-29T23:53:42;5.60;74.60
975;DHT22;6115;49.296;10.602;2022-09-29T23:58:43;5.60;75.20
